Time;durP1;ratioP1;P1;durP2;ratioP2;P2;SDS_P1;SDS_P2;PMS_P1;PMS_P2;Temp;Humidity;BMP_temperature;BMP_pressure;BME280_temperature;BME280_humidity;BME280_pressure;Samples;Min_cycle;Max_cycle;Signal;HPM_P1;HPM_P2
2023/06/02 00:01:04;;;;;;;9.45;2.78;;;11.10;75.00;;;;;;5035623;28;20077;-81
2023/06/02 00:03:33;;;;;;;12.73;2.92;;;11.10;75.00;;;;;;5019134;28;20485;-81
2023/06/02 00:06:00;;;;;;;14.90;3.20;;;11.10;75.10;;;;;;5018851;28;20042;-82
2023/06/02 00:08:26;;;;;;;10.32;2.55;;;11.10;75.20;;;;;;5003045;28;20152;-82
2023/06/02 00:10:52;;;;;;;10.93;2.50;;;11.10;75.20;;;;;;5035472;28;20073;-81
2023/06/02 00:13:18;;;;;;;10.80;3.17;;;11.10;75.10;;;;;;5035457;28;20080;-81
2023/06/02 00:15:44;;;;;;;10.18;2.75;;;11.10;75.10;;;;;;5018463;28;20033;-82
2023/06/02 00:18:10;;;;;;;7.38;2.70;;;11.10;74.90;;;;;;5019071;28;20045;-81
2023/06/02 00:20:37;;;;;;;9.65;2.58;;;11.10;75.10;;;;;;5018877;28;20044;-81
2023/06/02 00:23:03;;;;;;;9.25;3.20;;;11.10;75.20;;;;;;5018953;28;20038;-81
2023/06/02 00:25:30;;;;;;;15.73;2.85;;;11.10;75.40;;;;;;5018619;28;20045;-81
2023/06/02 00:27:56;;;;;;;12.45;3.15;;;11.10;75.50;;;;;;5018766;28;20046;-81
2023/06/02 00:30:22;;;;;;;16.10;3.17;;;11.00;75.70;;;;;;5002644;28;20041;-81
2023/06/02 00:32:48;;;;;;;14.15;3.10;;;11.10;75.80;;;;;;5009627;28;20088;-81
2023/06/02 00:35:14;;;;;;;16.33;3.65;;;11.10;75.90;;;;;;5015197;28;20038;-81
2023/06/02 00:37:39;;;;;;;11.98;2.65;;;11.00;76.20;;;;;;4999094;28;20087;-81
2023/06/02 00:40:06;;;;;;;13.77;2.67;;;11.10;76.10;;;;;;5015468;28;20573;-81
2023/06/02 00:42:32;;;;;;;12.52;2.88;;;11.10;76.10;;;;;;5015581;28;20042;-81
2023/06/02 00:44:58;;;;;;;14.80;3.55;;;11.00;76.10;;;;;;4998997;28;20038;-81
2023/06/02 00:47:24;;;;;;;11.35;2.47;;;11.00;76.20;;;;;;4999003;28;20544;-82
2023/06/02 00:49:50;;;;;;;17.98;3.80;;;11.00;76.40;;;;;;5002081;28;20037;-81
2023/06/02 00:52:18;;;;;;;15.75;3.15;;;11.00;76.50;;;;;;5002221;28;20080;-81
2023/06/02 00:54:43;;;;;;;17.27;3.05;;;11.00;76.60;;;;;;5034900;28;20393;-81
2023/06/02 00:57:09;;;;;;;16.42;3.22;;;11.00;76.80;;;;;;5018488;28;20048;-81
2023/06/02 00:59:37;;;;;;;12.30;3.00;;;11.00;76.90;;;;;;5018162;28;20037;-81
2023/06/02 01:02:02;;;;;;;12.85;3.25;;;11.00;77.00;;;;;;5018352;28;20095;-81
2023/06/02 01:04:30;;;;;;;11.73;3.53;;;11.00;77.20;;;;;;5034676;28;20398;-81
2023/06/02 01:07:02;;;;;;;8.70;2.67;;;11.00;77.10;;;;;;5016503;28;20079;-81
2023/06/02 01:09:29;;;;;;;12.80;3.97;;;11.00;77.10;;;;;;5017948;28;20046;-81
2023/06/02 01:11:55;;;;;;;13.98;3.65;;;11.00;77.10;;;;;;5034374;28;20120;-81
2023/06/02 01:14:22;;;;;;;12.88;3.28;;;11.00;76.90;;;;;;5001607;28;20048;-81
2023/06/02 01:16:51;;;;;;;14.07;3.72;;;11.00;77.00;;;;;;5034508;28;20045;-81
2023/06/02 01:19:21;;;;;;;10.70;2.53;;;11.00;77.00;;;;;;5017606;28;20045;-81
2023/06/02 01:21:59;;;;;;;13.45;3.30;;;11.00;76.80;;;;;;5018430;28;20110;-81
2023/06/02 01:24:36;;;;;;;12.35;2.85;;;11.00;76.60;;;;;;5033716;28;20049;-81
2023/06/02 01:27:06;;;;;;;13.07;3.30;;;11.00;76.30;;;;;;5017879;28;20421;-80
2023/06/02 01:29:35;;;;;;;11.30;3.45;;;11.00;76.10;;;;;;5017551;28;20128;-82
2023/06/02 01:32:24;;;;;;;15.02;3.58;;;11.00;76.10;;;;;;5018300;28;20045;-80
2023/06/02 01:34:52;;;;;;;12.50;3.15;;;11.00;76.20;;;;;;5033421;28;20049;-81
2023/06/02 01:37:20;;;;;;;22.40;3.88;;;11.00;76.30;;;;;;5017320;28;20049;-81
2023/06/02 01:39:47;;;;;;;11.23;3.22;;;11.00;76.20;;;;;;5001039;28;20091;-82
2023/06/02 01:42:15;;;;;;;11.15;3.17;;;10.90;76.30;;;;;;5016510;28;20088;-81
2023/06/02 01:44:42;;;;;;;11.43;3.22;;;11.00;76.40;;;;;;4997563;28;20048;-81
2023/06/02 01:47:09;;;;;;;9.27;2.63;;;10.90;76.20;;;;;;5013867;28;20556;-81
2023/06/02 01:49:35;;;;;;;14.90;3.92;;;10.90;76.40;;;;;;4997732;28;20049;-81
2023/06/02 01:52:01;;;;;;;11.35;3.55;;;10.90;76.50;;;;;;4997816;28;20621;-81
2023/06/02 01:54:26;;;;;;;9.93;3.67;;;10.90;76.50;;;;;;5030446;28;20041;-81
2023/06/02 01:56:52;;;;;;;12.20;3.22;;;10.90;76.80;;;;;;5013727;28;20042;-81
2023/06/02 01:59:18;;;;;;;15.02;3.15;;;10.90;76.90;;;;;;5013498;28;20048;-81
2023/06/02 02:01:44;;;;;;;13.35;3.13;;;10.80;77.00;;;;;;5000742;28;20057;-81
2023/06/02 02:04:10;;;;;;;18.90;4.72;;;10.80;77.00;;;;;;5017214;28;20037;-81
2023/06/02 02:06:37;;;;;;;15.80;3.80;;;10.80;77.10;;;;;;5016694;28;20049;-81
2023/06/02 02:09:07;;;;;;;11.05;3.42;;;10.80;77.30;;;;;;5000601;28;20056;-81
2023/06/02 02:11:33;;;;;;;9.48;3.30;;;10.80;77.20;;;;;;5017429;28;20060;-81
2023/06/02 02:14:00;;;;;;;18.83;3.22;;;10.80;77.40;;;;;;5016624;28;20037;-81
2023/06/02 02:16:26;;;;;;;17.15;3.08;;;10.80;77.40;;;;;;5018141;28;20080;-81
2023/06/02 02:18:56;;;;;;;8.93;3.42;;;10.80;77.50;;;;;;5013101;28;20124;-81
2023/06/02 02:21:22;;;;;;;8.20;3.05;;;10.80;77.60;;;;;;4997644;28;20046;-81
2023/06/02 02:23:47;;;;;;;11.57;3.60;;;10.80;77.80;;;;;;4996949;28;20046;-81
2023/06/02 02:26:13;;;;;;;17.33;3.63;;;10.80;77.80;;;;;;4996880;28;20172;-81
2023/06/02 02:28:39;;;;;;;14.80;2.97;;;10.70;77.90;;;;;;5013277;28;20416;-82
2023/06/02 02:31:04;;;;;;;14.55;3.70;;;10.70;78.10;;;;;;5013167;28;20462;-81
2023/06/02 02:33:30;;;;;;;14.90;3.50;;;10.70;78.10;;;;;;5005997;28;20080;-81
2023/06/02 02:35:56;;;;;;;12.73;3.00;;;10.70;78.00;;;;;;4996609;28;20041;-81
2023/06/02 02:38:22;;;;;;;14.63;3.78;;;10.70;78.10;;;;;;5012906;28;20061;-81
2023/06/02 02:40:48;;;;;;;16.58;3.50;;;10.70;78.10;;;;;;5046042;28;20046;-81
2023/06/02 02:43:15;;;;;;;14.48;3.60;;;10.70;78.10;;;;;;4996566;28;20486;-81
2023/06/02 02:45:41;;;;;;;10.60;2.90;;;10.70;78.10;;;;;;4996494;28;20038;-81
2023/06/02 02:48:07;;;;;;;15.75;3.05;;;10.80;78.10;;;;;;4996277;28;20103;-81
2023/06/02 02:50:33;;;;;;;11.38;3.53;;;10.70;78.10;;;;;;4996564;28;20046;-81
2023/06/02 02:52:59;;;;;;;12.63;3.53;;;10.70;78.00;;;;;;5012813;28;20041;-81
2023/06/02 02:55:25;;;;;;;9.68;2.67;;;10.80;78.10;;;;;;4996600;28;20048;-81
2023/06/02 02:57:51;;;;;;;8.88;2.42;;;10.80;77.90;;;;;;5029105;28;20091;-81
2023/06/02 03:00:17;;;;;;;20.02;3.33;;;10.80;77.80;;;;;;5012996;28;20394;-81
2023/06/02 03:02:43;;;;;;;14.45;3.72;;;10.80;77.90;;;;;;4996413;28;20038;-81
2023/06/02 03:05:10;;;;;;;11.20;3.33;;;10.80;78.10;;;;;;5027108;28;20041;-80
2023/06/02 03:07:39;;;;;;;13.23;3.47;;;10.80;78.10;;;;;;5029037;28;20414;-81
2023/06/02 03:10:06;;;;;;;13.80;3.58;;;10.80;78.30;;;;;;5012566;28;20049;-81
2023/06/02 03:12:32;;;;;;;16.20;4.35;;;10.80;78.50;;;;;;4996437;28;20191;-81
2023/06/02 03:15:00;;;;;;;13.63;2.95;;;10.80;78.60;;;;;;4995816;28;20529;-81
2023/06/02 03:17:27;;;;;;;15.18;3.75;;;10.80;78.70;;;;;;5011790;28;20038;-81
2023/06/02 03:19:55;;;;;;;17.58;3.22;;;10.80;78.70;;;;;;5035470;28;20042;-81
2023/06/02 03:22:21;;;;;;;17.08;4.05;;;10.80;78.70;;;;;;4995616;28;20038;-81
2023/06/02 03:24:46;;;;;;;14.45;2.70;;;10.80;79.00;;;;;;5012004;28;20044;-81
2023/06/02 03:27:15;;;;;;;12.90;3.03;;;10.80;79.00;;;;;;5012377;28;20124;-81
2023/06/02 03:29:42;;;;;;;11.57;2.90;;;10.90;79.30;;;;;;4996540;28;20045;-81
2023/06/02 03:32:12;;;;;;;13.65;4.07;;;10.80;79.30;;;;;;5000116;28;20491;-81
2023/06/02 03:34:39;;;;;;;12.32;3.13;;;10.80;79.40;;;;;;5005620;28;20610;-81
2023/06/02 03:37:07;;;;;;;16.60;3.55;;;10.80;79.80;;;;;;5036138;28;20099;-82
2023/06/02 03:39:33;;;;;;;10.68;3.03;;;10.90;79.80;;;;;;5036009;28;20041;-81
2023/06/02 03:41:59;;;;;;;15.57;3.40;;;10.90;80.10;;;;;;5019612;28;20455;-81
2023/06/02 03:44:25;;;;;;;13.07;3.00;;;10.90;80.10;;;;;;5019525;28;20060;-81
2023/06/02 03:46:50;;;;;;;17.83;3.42;;;10.80;80.10;;;;;;5035966;28;20034;-81
2023/06/02 03:49:16;;;;;;;20.55;3.70;;;10.90;80.20;;;;;;5019500;28;20072;-81
2023/06/02 03:51:43;;;;;;;23.27;4.45;;;10.90;80.20;;;;;;5018511;28;20120;-81
2023/06/02 03:54:09;;;;;;;16.73;3.50;;;10.90;80.30;;;;;;5035743;28;20041;-81
2023/06/02 03:56:34;;;;;;;15.38;3.72;;;10.90;80.20;;;;;;5019230;28;20478;-81
2023/06/02 03:59:00;;;;;;;15.73;3.60;;;11.00;80.30;;;;;;5019201;28;20049;-81
2023/06/02 04:01:27;;;;;;;18.10;3.85;;;11.00;80.30;;;;;;5002843;28;20075;-81
2023/06/02 04:03:53;;;;;;;22.42;4.18;;;11.00;80.30;;;;;;5019188;28;20060;-81
2023/06/02 04:06:18;;;;;;;16.85;3.60;;;11.00;80.20;;;;;;5035434;28;20050;-81
2023/06/02 04:08:46;;;;;;;16.75;3.67;;;11.00;80.20;;;;;;5035957;28;20107;-82
2023/06/02 04:11:12;;;;;;;18.52;3.53;;;11.00;80.30;;;;;;5035807;28;20461;-80
2023/06/02 04:13:38;;;;;;;15.20;3.47;;;11.00;80.30;;;;;;5019273;28;20052;-80
2023/06/02 04:16:04;;;;;;;13.93;3.20;;;11.00;80.50;;;;;;5018922;28;20041;-81
2023/06/02 04:18:35;;;;;;;12.90;2.85;;;11.00;80.40;;;;;;5018894;28;20048;-82
2023/06/02 04:21:01;;;;;;;12.50;3.72;;;11.00;80.50;;;;;;5018020;28;20564;-82
2023/06/02 04:23:26;;;;;;;20.10;4.10;;;11.10;80.50;;;;;;5035701;28;20049;-83
2023/06/02 04:25:52;;;;;;;23.05;4.20;;;11.00;80.50;;;;;;5002449;28;20568;-82
2023/06/02 04:28:19;;;;;;;20.45;4.32;;;11.10;80.80;;;;;;5019169;28;20378;-83
2023/06/02 04:30:45;;;;;;;21.48;3.90;;;11.10;80.80;;;;;;5002889;28;20052;-82
2023/06/02 04:33:14;;;;;;;16.42;4.03;;;11.10;80.90;;;;;;5018673;28;20049;-82
2023/06/02 04:35:39;;;;;;;19.00;4.25;;;11.10;80.90;;;;;;5028786;28;20394;-80
2023/06/02 04:38:07;;;;;;;19.67;3.55;;;11.10;80.90;;;;;;4998865;28;20038;-81
2023/06/02 04:40:32;;;;;;;18.95;4.20;;;11.20;81.00;;;;;;4998983;28;20617;-81
2023/06/02 04:42:59;;;;;;;14.68;3.75;;;11.20;80.90;;;;;;5000555;28;20124;-81
2023/06/02 04:45:24;;;;;;;19.05;3.42;;;11.20;80.90;;;;;;5034922;28;20120;-82
2023/06/02 04:47:50;;;;;;;12.80;3.45;;;11.30;81.00;;;;;;5018443;28;20068;-82
2023/06/02 04:50:16;;;;;;;13.18;3.92;;;11.30;81.00;;;;;;5014934;28;20034;-79
2023/06/02 04:52:42;;;;;;;13.93;3.38;;;11.30;81.10;;;;;;4998969;28;20033;-79
2023/06/02 04:55:10;;;;;;;15.52;3.75;;;11.40;81.00;;;;;;5014881;28;20052;-79
2023/06/02 04:57:36;;;;;;;25.45;4.15;;;11.40;81.20;;;;;;4998541;28;20042;-80
2023/06/02 05:00:04;;;;;;;14.05;4.07;;;11.40;81.10;;;;;;4999164;28;20077;-79
2023/06/02 05:02:30;;;;;;;20.08;3.70;;;11.40;81.10;;;;;;5014780;28;20048;-79
2023/06/02 05:04:56;;;;;;;16.73;3.60;;;11.50;81.10;;;;;;5014667;28;20074;-79
2023/06/02 05:07:22;;;;;;;14.80;3.40;;;11.50;81.00;;;;;;4982025;28;20477;-79
2023/06/02 05:09:47;;;;;;;14.50;3.15;;;11.50;81.00;;;;;;5014961;28;20054;-79
2023/06/02 05:12:15;;;;;;;16.67;3.47;;;11.50;80.90;;;;;;4998364;28;20461;-80
2023/06/02 05:14:42;;;;;;;17.58;3.78;;;11.50;81.00;;;;;;5014755;28;20052;-79
2023/06/02 05:17:07;;;;;;;17.25;3.47;;;11.50;81.10;;;;;;4998230;28;20049;-79
2023/06/02 05:19:33;;;;;;;23.33;3.92;;;11.60;81.10;;;;;;4998181;28;20042;-80
2023/06/02 05:21:59;;;;;;;13.30;3.53;;;11.60;81.10;;;;;;4998138;28;20553;-80
2023/06/02 05:24:25;;;;;;;13.60;3.85;;;11.60;81.10;;;;;;4965771;28;20049;-79
2023/06/02 05:26:50;;;;;;;16.58;4.00;;;11.60;81.20;;;;;;5014509;28;20100;-78
2023/06/02 05:29:16;;;;;;;14.55;3.80;;;11.70;81.10;;;;;;4981854;28;20042;-79
2023/06/02 05:31:41;;;;;;;17.73;3.40;;;11.70;81.20;;;;;;4981667;28;20037;-80
2023/06/02 05:34:07;;;;;;;19.00;4.25;;;11.70;81.10;;;;;;5013816;28;20045;-79
2023/06/02 05:36:33;;;;;;;19.17;4.47;;;11.70;81.30;;;;;;5014184;28;20077;-79
2023/06/02 05:38:59;;;;;;;14.52;3.30;;;11.70;81.50;;;;;;4997683;28;20045;-79
2023/06/02 05:41:28;;;;;;;17.17;4.00;;;11.80;81.60;;;;;;4998085;28;20375;-80
2023/06/02 05:43:55;;;;;;;12.77;3.55;;;11.80;81.70;;;;;;4982304;28;20048;-79
2023/06/02 05:46:21;;;;;;;13.43;4.20;;;11.90;81.50;;;;;;5014233;28;20056;-79
2023/06/02 05:48:47;;;;;;;10.75;3.15;;;11.80;81.50;;;;;;4997629;28;20129;-78
2023/06/02 05:51:13;;;;;;;14.80;4.15;;;11.80;81.60;;;;;;4997529;28;20481;-79
2023/06/02 05:53:38;;;;;;;15.93;4.80;;;11.90;81.60;;;;;;4964683;28;20044;-79
2023/06/02 05:56:04;;;;;;;15.07;4.25;;;11.90;81.70;;;;;;4997392;28;20060;-79
2023/06/02 05:58:31;;;;;;;19.05;4.30;;;11.90;81.90;;;;;;5013682;28;20049;-79
2023/06/02 06:00:57;;;;;;;11.93;4.70;;;11.90;81.90;;;;;;5013946;28;20064;-79
2023/06/02 06:03:23;;;;;;;17.27;4.78;;;12.00;81.80;;;;;;4965428;28;20041;-80
2023/06/02 06:05:49;;;;;;;19.48;5.43;;;12.00;81.90;;;;;;4997774;28;20148;-80
2023/06/02 06:08:14;;;;;;;20.83;4.85;;;12.00;82.00;;;;;;5000855;28;20145;-80
2023/06/02 06:10:42;;;;;;;14.27;4.53;;;12.00;82.20;;;;;;5016749;28;20136;-80
2023/06/02 06:13:08;;;;;;;21.83;4.95;;;12.00;82.30;;;;;;5016786;28;20421;-80
2023/06/02 06:15:34;;;;;;;18.10;5.30;;;12.00;82.30;;;;;;5000206;28;20044;-79
2023/06/02 06:17:59;;;;;;;24.63;5.70;;;12.00;82.50;;;;;;5016811;28;20037;-79
2023/06/02 06:20:25;;;;;;;20.02;5.20;;;12.10;82.60;;;;;;4984436;28;20496;-82
2023/06/02 06:22:51;;;;;;;19.60;4.93;;;12.10;82.70;;;;;;4984171;28;20042;-83
2023/06/02 06:25:17;;;;;;;20.55;4.88;;;12.10;82.80;;;;;;5000156;28;20041;-83
2023/06/02 06:27:43;;;;;;;23.38;4.50;;;12.10;83.00;;;;;;4984022;28;20124;-83
2023/06/02 06:30:09;;;;;;;13.57;4.30;;;12.20;83.00;;;;;;5000132;28;20492;-83
2023/06/02 06:32:35;;;;;;;23.77;4.50;;;12.20;83.10;;;;;;5000074;28;20037;-83
2023/06/02 06:35:00;;;;;;;16.42;4.95;;;12.30;83.00;;;;;;4999989;28;20037;-83
2023/06/02 06:37:28;;;;;;;18.20;4.97;;;12.30;83.10;;;;;;4967718;28;20041;-83
2023/06/02 06:39:54;;;;;;;19.38;6.40;;;12.40;83.10;;;;;;4999853;28;20041;-82
2023/06/02 06:42:21;;;;;;;22.48;5.80;;;12.50;83.30;;;;;;4984035;28;20051;-83
2023/06/02 06:44:48;;;;;;;24.23;6.15;;;12.50;83.20;;;;;;4999738;28;20045;-82
2023/06/02 06:47:14;;;;;;;23.17;6.32;;;12.50;83.30;;;;;;4999955;28;20038;-83
2023/06/02 06:49:40;;;;;;;26.88;5.88;;;12.60;83.20;;;;;;5016214;28;20048;-82
2023/06/02 06:52:06;;;;;;;21.35;5.40;;;12.60;83.10;;;;;;4999715;28;20042;-83
2023/06/02 06:54:31;;;;;;;21.75;5.03;;;12.70;83.10;;;;;;4983704;28;20041;-84
2023/06/02 06:56:57;;;;;;;21.63;5.07;;;12.70;83.10;;;;;;5016887;28;20052;-85
2023/06/02 06:59:23;;;;;;;26.73;5.10;;;12.80;83.20;;;;;;4999571;28;20405;-84
2023/06/02 07:01:48;;;;;;;24.63;6.10;;;12.90;83.10;;;;;;4999529;28;20100;-85
2023/06/02 07:04:14;;;;;;;28.00;6.45;;;13.00;83.10;;;;;;4983070;28;20045;-83
2023/06/02 07:06:40;;;;;;;22.33;5.65;;;13.00;83.00;;;;;;4995757;28;20054;-84
2023/06/02 07:09:06;;;;;;;18.98;5.63;;;13.10;83.20;;;;;;4998029;28;20088;-84
2023/06/02 07:11:31;;;;;;;20.75;5.40;;;13.20;83.10;;;;;;4965307;28;20085;-84
2023/06/02 07:13:57;;;;;;;21.10;6.28;;;13.20;82.90;;;;;;4996580;28;20056;-84
2023/06/02 07:16:23;;;;;;;18.55;5.45;;;13.30;82.50;;;;;;4964071;28;20048;-83
2023/06/02 07:18:48;;;;;;;28.27;5.68;;;13.20;82.50;;;;;;4996192;28;20046;-84
2023/06/02 07:21:14;;;;;;;19.35;5.25;;;13.30;82.50;;;;;;4996385;28;20038;-84
2023/06/02 07:23:40;;;;;;;17.83;5.00;;;13.40;82.40;;;;;;4997798;28;20037;-83
2023/06/02 07:26:06;;;;;;;16.13;5.40;;;13.50;82.40;;;;;;4966263;28;20034;-84
2023/06/02 07:28:34;;;;;;;16.40;4.95;;;13.50;82.20;;;;;;5038711;28;20032;-82
2023/06/02 07:31:00;;;;;;;23.98;6.10;;;13.50;82.10;;;;;;5038600;28;20026;-83
2023/06/02 07:33:25;;;;;;;21.13;5.65;;;13.60;82.00;;;;;;4990029;28;20025;-83
2023/06/02 07:35:51;;;;;;;19.33;6.07;;;13.60;81.90;;;;;;5005932;28;20026;-83
2023/06/02 07:38:17;;;;;;;22.30;5.60;;;13.60;82.00;;;;;;5038560;28;20042;-82
2023/06/02 07:40:42;;;;;;;21.10;5.55;;;13.70;81.80;;;;;;5005781;28;20050;-84
2023/06/02 07:43:08;;;;;;;21.60;5.55;;;13.70;81.80;;;;;;5019996;28;20046;-83
2023/06/02 07:45:34;;;;;;;21.48;5.93;;;13.80;81.70;;;;;;4999355;28;20042;-85
2023/06/02 07:48:00;;;;;;;22.98;5.50;;;13.90;81.50;;;;;;5031300;28;20038;-83
2023/06/02 07:50:25;;;;;;;27.55;6.43;;;13.90;81.50;;;;;;4998628;28;20022;-84
2023/06/02 07:52:51;;;;;;;28.88;6.13;;;14.00;81.50;;;;;;4983811;28;20517;-83
2023/06/02 07:55:17;;;;;;;26.75;8.65;;;14.10;81.60;;;;;;4998948;28;20053;-83
2023/06/02 07:57:43;;;;;;;25.15;6.47;;;14.20;81.50;;;;;;5009527;28;20104;-84
2023/06/02 08:00:12;;;;;;;26.17;6.32;;;14.30;81.40;;;;;;4980247;28;20037;-84
2023/06/02 08:02:40;;;;;;;19.45;6.50;;;14.40;81.40;;;;;;5012316;28;20045;-84
2023/06/02 08:05:06;;;;;;;26.90;6.20;;;14.60;81.30;;;;;;4979918;28;20035;-84
2023/06/02 08:07:32;;;;;;;19.77;5.60;;;14.70;81.10;;;;;;5012273;28;20054;-83
2023/06/02 08:09:57;;;;;;;22.33;5.63;;;14.80;80.70;;;;;;4996233;28;20133;-86
2023/06/02 08:12:24;;;;;;;22.42;5.88;;;14.80;80.30;;;;;;4995772;28;20490;-84
2023/06/02 08:14:50;;;;;;;18.67;6.00;;;14.90;79.60;;;;;;4996234;28;20050;-86
2023/06/02 08:17:15;;;;;;;25.92;6.43;;;15.00;79.50;;;;;;4998714;28;20099;-85
2023/06/02 08:19:41;;;;;;;21.08;5.75;;;15.10;79.70;;;;;;5015606;28;20042;-84
2023/06/02 08:22:09;;;;;;;21.95;5.80;;;15.10;79.50;;;;;;4970811;28;20081;-84
2023/06/02 08:24:36;;;;;;;19.13;5.18;;;15.20;79.20;;;;;;4983877;28;20382;-84
2023/06/02 08:27:03;;;;;;;23.88;6.05;;;15.30;79.10;;;;;;5015501;28;20076;-85
2023/06/02 08:29:30;;;;;;;23.25;5.07;;;15.30;78.90;;;;;;4982663;28;20045;-83
2023/06/02 08:31:56;;;;;;;22.25;5.63;;;15.30;78.80;;;;;;4999014;28;20517;-83
2023/06/02 08:34:24;;;;;;;20.15;6.13;;;15.20;78.40;;;;;;4983192;28;20061;-83
2023/06/02 08:36:56;;;;;;;20.45;5.10;;;15.20;78.20;;;;;;5015572;28;20041;-83
2023/06/02 08:39:22;;;;;;;20.63;4.80;;;15.30;78.40;;;;;;4998859;28;20038;-83
2023/06/02 08:41:50;;;;;;;17.63;4.90;;;15.30;78.50;;;;;;4999098;28;20050;-82
2023/06/02 08:44:16;;;;;;;18.02;4.93;;;15.40;78.30;;;;;;4998741;28;20037;-80
2023/06/02 08:46:46;;;;;;;20.65;5.40;;;15.50;77.90;;;;;;4999217;28;20065;-85
2023/06/02 08:49:15;;;;;;;22.52;5.38;;;15.60;77.90;;;;;;5015196;28;20038;-82
2023/06/02 08:51:43;;;;;;;17.17;5.38;;;15.60;78.00;;;;;;4999131;28;20077;-83
2023/06/02 08:54:11;;;;;;;26.13;5.65;;;15.80;77.60;;;;;;4999101;28;20077;-85
2023/06/02 08:56:37;;;;;;;17.23;5.30;;;15.90;77.10;;;;;;5015210;28;20222;-85
2023/06/02 08:59:03;;;;;;;32.60;6.25;;;16.00;77.20;;;;;;4982968;28;20391;-83
2023/06/02 09:01:28;;;;;;;26.58;5.80;;;16.10;77.10;;;;;;4982750;28;20042;-83
2023/06/02 09:03:54;;;;;;;20.10;4.88;;;16.20;76.90;;;;;;4983018;28;20041;-84
2023/06/02 09:06:23;;;;;;;19.35;5.38;;;16.20;76.20;;;;;;4978971;28;20508;-84
2023/06/02 09:08:53;;;;;;;19.55;4.78;;;16.40;75.90;;;;;;4979086;28;20487;-84
2023/06/02 09:11:19;;;;;;;19.00;4.55;;;16.50;75.70;;;;;;4995400;28;20034;-81
2023/06/02 09:13:45;;;;;;;13.70;4.05;;;16.50;74.40;;;;;;4980301;28;20103;-85
2023/06/02 09:16:11;;;;;;;19.02;4.38;;;16.60;74.10;;;;;;4962765;28;20402;-84
2023/06/02 09:18:36;;;;;;;13.65;4.13;;;16.70;74.10;;;;;;4979146;28;20153;-84
2023/06/02 09:21:02;;;;;;;13.23;3.95;;;16.90;74.00;;;;;;4963672;28;20042;-83
2023/06/02 09:23:45;;;;;;;19.73;4.93;;;16.90;73.50;;;;;;4978783;28;20125;-83
2023/06/02 09:26:28;;;;;;;17.55;4.25;;;17.10;73.20;;;;;;4978939;28;20364;-85
2023/06/02 09:29:07;;;;;;;10.73;3.70;;;17.20;73.10;;;;;;4977747;28;20046;-85
2023/06/02 09:31:47;;;;;;;14.77;4.63;;;17.40;72.60;;;;;;5010917;28;20042;-86
2023/06/02 09:34:15;;;;;;;20.90;4.65;;;17.50;71.70;;;;;;4978479;28;20125;-85
2023/06/02 09:36:41;;;;;;;16.48;4.18;;;17.50;71.50;;;;;;4962444;28;20069;-86
2023/06/02 09:39:10;;;;;;;17.20;4.05;;;17.60;71.20;;;;;;4962405;28;20042;-86
2023/06/02 09:41:39;;;;;;;13.95;4.88;;;17.80;71.30;;;;;;4962791;28;20046;-86
2023/06/02 09:44:15;;;;;;;13.38;3.42;;;17.90;70.10;;;;;;5010872;28;20105;-85
2023/06/02 09:46:43;;;;;;;8.63;2.92;;;18.00;68.30;;;;;;5011460;28;20117;-86
2023/06/02 09:49:09;;;;;;;8.88;2.40;;;18.00;67.70;;;;;;5010805;28;20130;-86
2023/06/02 09:51:38;;;;;;;9.00;2.17;;;18.10;66.00;;;;;;4978092;28;20050;-85
2023/06/02 09:54:08;;;;;;;7.43;2.47;;;18.30;65.40;;;;;;5010679;28;20572;-85
2023/06/02 09:56:38;;;;;;;6.13;2.35;;;18.50;64.30;;;;;;4962149;28;20054;-84
2023/06/02 09:59:07;;;;;;;7.63;2.20;;;18.70;64.20;;;;;;4962091;28;20039;-84
2023/06/02 10:01:36;;;;;;;10.25;4.15;;;18.90;64.50;;;;;;4961835;28;20042;-84
2023/06/02 10:04:05;;;;;;;8.82;2.47;;;18.90;63.50;;;;;;4962239;28;20039;-84
2023/06/02 10:06:54;;;;;;;10.48;2.70;;;19.10;64.00;;;;;;4980655;28;20046;-84
2023/06/02 10:09:43;;;;;;;6.07;1.73;;;19.20;61.70;;;;;;4994308;28;20050;-84
2023/06/02 10:12:33;;;;;;;8.20;1.75;;;19.20;60.90;;;;;;4977884;28;20505;-84
2023/06/02 10:15:13;;;;;;;5.82;1.75;;;19.30;61.10;;;;;;4978606;28;20042;-84
2023/06/02 10:18:33;;;;;;;2.92;1.10;;;19.40;60.20;;;;;;4978017;28;20042;-85
2023/06/02 10:21:29;;;;;;;7.57;1.83;;;19.50;55.60;;;;;;4903675;29;20056;-84
2023/06/02 10:24:37;;;;;;;4.28;1.52;;;19.70;58.30;;;;;;4993801;28;20046;-85
2023/06/02 10:27:12;;;;;;;3.53;1.00;;;19.90;55.50;;;;;;4954814;28;20046;-86
2023/06/02 10:29:38;;;;;;;3.75;1.30;;;19.90;54.60;;;;;;4977694;28;20510;-84
2023/06/02 10:32:22;;;;;;;3.97;1.40;;;20.00;53.40;;;;;;4993595;28;20050;-85
2023/06/02 10:34:52;;;;;;;2.77;1.23;;;20.10;53.20;;;;;;4995198;28;20042;-85
2023/06/02 10:37:19;;;;;;;4.50;1.23;;;20.20;54.20;;;;;;4978434;28;20074;-86
2023/06/02 10:39:45;;;;;;;4.95;1.95;;;20.40;55.70;;;;;;4977227;28;20492;-83
2023/06/02 10:42:13;;;;;;;5.57;1.65;;;20.50;51.90;;;;;;4993454;28;20046;-85
2023/06/02 10:44:38;;;;;;;3.40;1.23;;;20.50;50.70;;;;;;4961198;28;20127;-84
2023/06/02 10:47:20;;;;;;;2.28;0.93;;;20.40;49.10;;;;;;4977514;28;20455;-85
2023/06/02 10:49:58;;;;;;;4.32;1.20;;;20.50;48.80;;;;;;4977017;28;20046;-84
2023/06/02 10:52:34;;;;;;;3.90;1.50;;;20.50;51.00;;;;;;4977118;28;20046;-85
2023/06/02 10:55:13;;;;;;;5.78;1.45;;;20.70;51.50;;;;;;4977101;28;20042;-84
2023/06/02 10:57:55;;;;;;;7.10;1.65;;;20.80;50.60;;;;;;4977006;28;20049;-84
2023/06/02 11:00:32;;;;;;;4.63;1.98;;;20.90;49.10;;;;;;4996128;28;20502;-85
2023/06/02 11:03:22;;;;;;;3.85;1.27;;;21.00;48.90;;;;;;4996332;28;20042;-85
2023/06/02 11:05:54;;;;;;;9.98;1.83;;;20.90;46.30;;;;;;4997176;28;20037;-85
2023/06/02 11:08:22;;;;;;;4.63;1.30;;;20.90;48.50;;;;;;5035838;28;20056;-85
2023/06/02 11:10:57;;;;;;;10.70;1.52;;;20.90;48.00;;;;;;5036134;28;20508;-85
2023/06/02 11:13:24;;;;;;;4.55;1.40;;;21.10;46.90;;;;;;5035697;28;20037;-85
2023/06/02 11:15:56;;;;;;;6.55;1.83;;;21.30;46.10;;;;;;5003023;28;20041;-85
2023/06/02 11:18:22;;;;;;;4.72;1.42;;;21.40;47.00;;;;;;5019194;28;20036;-84
2023/06/02 11:20:53;;;;;;;6.35;1.20;;;21.50;47.30;;;;;;5019280;28;20094;-84
2023/06/02 11:23:19;;;;;;;5.38;1.40;;;21.60;46.40;;;;;;5036525;28;20142;-83
2023/06/02 11:25:49;;;;;;;2.70;1.10;;;21.60;45.30;;;;;;5035346;28;20037;-85
2023/06/02 11:28:17;;;;;;;6.35;1.55;;;21.60;45.30;;;;;;5020057;28;20466;-85
2023/06/02 11:30:42;;;;;;;5.78;1.50;;;21.80;46.60;;;;;;5019138;28;20049;-85
2023/06/02 11:33:08;;;;;;;6.60;1.65;;;21.90;44.20;;;;;;5052100;28;20574;-85
2023/06/02 11:35:35;;;;;;;3.33;1.20;;;22.00;44.90;;;;;;5019203;28;20036;-85
2023/06/02 11:38:16;;;;;;;5.90;1.55;;;22.00;44.90;;;;;;5035707;28;20122;-85
2023/06/02 11:40:42;;;;;;;6.50;1.45;;;22.20;45.30;;;;;;5035794;28;20045;-85
2023/06/02 11:43:07;;;;;;;7.97;1.60;;;22.20;44.10;;;;;;5035976;28;20388;-86
2023/06/02 11:45:34;;;;;;;3.30;1.20;;;22.30;44.60;;;;;;5019209;28;20091;-85
2023/06/02 11:48:05;;;;;;;2.63;1.10;;;22.20;42.70;;;;;;5053062;28;20072;-84
2023/06/02 11:50:31;;;;;;;6.05;1.60;;;22.30;41.60;;;;;;5027674;28;20060;-85
2023/06/02 11:52:58;;;;;;;3.85;1.60;;;22.40;43.10;;;;;;5036762;28;20044;-85
2023/06/02 11:55:32;;;;;;;2.25;1.08;;;22.50;44.30;;;;;;5037337;28;20124;-85
2023/06/02 11:58:17;;;;;;;;;;;22.60;43.30;;;;;;5036484;28;20045;-85
2023/06/02 12:00:42;;;;;;;3.03;1.20;;;22.70;43.40;;;;;;5012265;28;19986;-85
2023/06/02 12:03:09;;;;;;;3.78;1.38;;;22.70;42.30;;;;;;5001026;28;20045;-85
2023/06/02 12:05:35;;;;;;;3.90;1.38;;;22.80;41.20;;;;;;5035475;28;20515;-85
2023/06/02 12:08:08;;;;;;;2.88;1.13;;;22.80;40.70;;;;;;5033513;28;20463;-83
2023/06/02 12:10:34;;;;;;;5.38;1.52;;;22.90;40.90;;;;;;5015443;28;20469;-85
2023/06/02 12:13:00;;;;;;;3.70;1.52;;;22.90;41.60;;;;;;5017221;28;20124;-85
2023/06/02 12:15:33;;;;;;;3.30;1.40;;;22.90;41.60;;;;;;4997831;28;20050;-85
2023/06/02 12:18:00;;;;;;;5.60;1.38;;;22.90;42.40;;;;;;5012108;28;20041;-86
2023/06/02 12:20:42;;;;;;;3.17;1.40;;;23.10;44.00;;;;;;5016493;28;20045;-85
2023/06/02 12:23:09;;;;;;;4.25;1.60;;;23.20;44.70;;;;;;5033127;28;20041;-86
2023/06/02 12:25:35;;;;;;;6.88;1.58;;;23.30;45.10;;;;;;5017222;28;20033;-82
2023/06/02 12:28:07;;;;;;;4.20;1.70;;;23.40;43.90;;;;;;5033684;28;20513;-86
2023/06/02 12:30:33;;;;;;;5.15;1.70;;;23.40;45.00;;;;;;5032901;28;20033;-86
2023/06/02 12:33:10;;;;;;;5.05;1.80;;;23.30;45.10;;;;;;5033772;28;20539;-85
2023/06/02 12:35:36;;;;;;;7.68;2.17;;;23.40;44.60;;;;;;5016359;28;20045;-80
2023/06/02 12:38:03;;;;;;;5.38;1.55;;;23.40;44.50;;;;;;5049824;28;20076;-86
2023/06/02 12:40:30;;;;;;;5.93;1.88;;;23.50;45.10;;;;;;5028391;28;20057;-86
2023/06/02 12:42:55;;;;;;;5.90;2.42;;;23.60;47.60;;;;;;5029652;28;20076;-86
2023/06/02 12:45:21;;;;;;;4.35;2.17;;;23.70;47.30;;;;;;5033250;28;20068;-85